createdAt,value
2023-05-20T00:00:26.380Z,13.40
2023-05-20T00:00:58.136Z,14.30
2023-05-20T00:01:29.945Z,14.30
2023-05-20T00:02:01.740Z,14.00
2023-05-20T00:02:33.769Z,14.10
2023-05-20T00:03:05.938Z,13.50
2023-05-20T00:03:37.919Z,13.40
2023-05-20T00:04:10.105Z,14.40
2023-05-20T00:04:42.312Z,14.30
2023-05-20T00:05:14.194Z,14.90
2023-05-20T00:05:46.622Z,13.30
2023-05-20T00:06:18.429Z,13.30
2023-05-20T00:06:50.262Z,13.30
2023-05-20T00:07:22.035Z,13.30
2023-05-20T00:07:53.901Z,13.30
2023-05-20T00:08:25.839Z,13.50
2023-05-20T00:08:59.670Z,13.30
2023-05-20T00:09:31.452Z,14.40
2023-05-20T00:10:03.206Z,14.00
2023-05-20T00:10:35.800Z,13.00
2023-05-20T00:11:07.681Z,13.50
2023-05-20T00:11:39.571Z,13.60
2023-05-20T00:12:11.373Z,13.10
2023-05-20T00:12:43.210Z,12.80
2023-05-20T00:13:15.052Z,14.20
2023-05-20T00:13:47.121Z,13.30
2023-05-20T00:14:18.990Z,13.20
2023-05-20T00:14:51.007Z,13.20
2023-05-20T00:15:22.804Z,14.50
2023-05-20T00:15:54.677Z,13.10
2023-05-20T00:16:26.571Z,13.20
2023-05-20T00:16:58.454Z,13.80
2023-05-20T00:17:31.211Z,13.80
2023-05-20T00:18:04.118Z,13.50
2023-05-20T00:18:36.054Z,13.20
2023-05-20T00:19:08.287Z,13.20
2023-05-20T00:19:40.121Z,14.10
2023-05-20T00:20:12.224Z,14.00
2023-05-20T00:20:44.065Z,13.20
2023-05-20T00:21:15.919Z,13.90
2023-05-20T00:21:47.842Z,13.40
2023-05-20T00:22:19.977Z,13.90
2023-05-20T00:22:51.752Z,13.10
2023-05-20T00:23:23.591Z,13.70
2023-05-20T00:23:56.481Z,13.20
2023-05-20T00:24:28.430Z,13.40
2023-05-20T00:25:00.270Z,13.10
2023-05-20T00:25:32.670Z,13.10
2023-05-20T00:26:04.712Z,13.90
2023-05-20T00:26:36.520Z,13.10
2023-05-20T00:27:08.299Z,13.10
2023-05-20T00:27:43.020Z,14.70
2023-05-20T00:28:14.832Z,13.10
2023-05-20T00:28:46.731Z,13.20
2023-05-20T00:29:18.588Z,13.10
2023-05-20T00:29:50.604Z,12.90
2023-05-20T00:30:22.459Z,13.00
2023-05-20T00:30:54.887Z,13.00
2023-05-20T00:31:26.765Z,13.80
2023-05-20T00:31:58.678Z,13.00
2023-05-20T00:32:30.659Z,12.90
2023-05-20T00:33:02.615Z,13.00
2023-05-20T00:33:36.294Z,13.00
2023-05-20T00:34:08.593Z,13.50
2023-05-20T00:34:40.645Z,13.00
2023-05-20T00:35:13.122Z,13.00
2023-05-20T00:35:44.937Z,14.10
2023-05-20T00:36:16.779Z,13.10
2023-05-20T00:36:48.625Z,13.00
2023-05-20T00:37:20.690Z,13.00
2023-05-20T00:37:52.495Z,13.00
2023-05-20T00:38:24.458Z,12.90
2023-05-20T00:38:56.327Z,12.90
2023-05-20T00:39:29.652Z,13.50
2023-05-20T00:40:01.455Z,12.60
2023-05-20T00:40:33.278Z,12.90
2023-05-20T00:41:05.134Z,13.40
2023-05-20T00:41:37.173Z,12.90
2023-05-20T00:42:08.953Z,12.90
2023-05-20T00:42:40.794Z,12.90
2023-05-20T00:43:12.659Z,14.20
2023-05-20T00:43:44.475Z,12.90
2023-05-20T00:44:17.961Z,12.90
2023-05-20T00:44:50.098Z,14.10
2023-05-20T00:45:22.355Z,13.60
2023-05-20T00:45:54.650Z,12.90
2023-05-20T00:46:28.223Z,14.10
2023-05-20T00:47:01.343Z,12.80
2023-05-20T00:47:36.480Z,12.90
2023-05-20T00:48:09.641Z,13.50
2023-05-20T00:48:44.254Z,12.90
2023-05-20T00:49:16.181Z,13.40
2023-05-20T00:49:50.976Z,12.80
2023-05-20T00:50:23.825Z,12.80
2023-05-20T00:50:55.702Z,12.70
2023-05-20T00:51:27.874Z,12.50
2023-05-20T00:52:00.034Z,12.70
2023-05-20T00:52:32.874Z,12.70
2023-05-20T00:53:06.242Z,12.70
2023-05-20T00:53:39.114Z,12.70
2023-05-20T00:54:11.469Z,13.00
2023-05-20T00:54:43.888Z,12.70
2023-05-20T00:55:16.114Z,12.70
2023-05-20T00:55:48.108Z,12.70
2023-05-20T00:56:21.554Z,12.80
2023-05-20T00:56:53.686Z,14.70
2023-05-20T00:57:26.241Z,12.80
2023-05-20T00:57:58.655Z,12.80
2023-05-20T00:58:31.934Z,12.70
2023-05-20T00:59:04.819Z,12.80
2023-05-20T00:59:37.854Z,12.70
2023-05-20T01:00:10.732Z,12.80
2023-05-20T01:00:43.105Z,12.70
2023-05-20T01:01:15.001Z,13.70
2023-05-20T01:01:47.378Z,13.00
2023-05-20T01:02:19.757Z,12.70
2023-05-20T01:02:51.942Z,13.50
2023-05-20T01:03:23.935Z,12.70
2023-05-20T01:03:55.945Z,13.50
2023-05-20T01:04:28.139Z,12.70
2023-05-20T01:05:00.013Z,12.70
2023-05-20T01:05:32.223Z,12.60
2023-05-20T01:06:04.231Z,12.70
2023-05-20T01:06:38.021Z,13.20
2023-05-20T01:07:09.858Z,12.60
2023-05-20T01:07:42.495Z,12.50
2023-05-20T01:08:14.461Z,12.60
2023-05-20T01:08:46.364Z,12.50
2023-05-20T01:09:18.297Z,12.50
2023-05-20T01:09:50.513Z,13.40
2023-05-20T01:10:27.228Z,12.60
2023-05-20T01:11:09.005Z,12.60
2023-05-20T01:11:51.076Z,12.60
2023-05-20T01:12:30.408Z,13.50
2023-05-20T01:13:08.676Z,12.50
2023-05-20T01:13:47.262Z,13.20
2023-05-20T01:14:20.655Z,13.40
2023-05-20T01:15:03.891Z,12.50
2023-05-20T01:15:36.621Z,15.70
2023-05-20T01:16:10.953Z,12.50
2023-05-20T01:16:43.736Z,12.40
2023-05-20T01:17:17.903Z,12.70
2023-05-20T01:17:57.972Z,12.40
2023-05-20T01:18:32.098Z,12.40
2023-05-20T01:19:15.308Z,12.40
2023-05-20T01:19:48.638Z,12.80
2023-05-20T01:20:22.095Z,12.50
2023-05-20T01:20:56.087Z,12.30
2023-05-20T01:21:30.569Z,12.30
2023-05-20T01:22:08.355Z,12.40
2023-05-20T01:22:54.945Z,12.10
2023-05-20T01:23:38.290Z,12.30
2023-05-20T01:24:10.068Z,12.40
2023-05-20T01:24:48.353Z,12.30
2023-05-20T01:25:20.472Z,12.30
2023-05-20T01:25:52.397Z,12.30
2023-05-20T01:26:26.934Z,12.30
2023-05-20T01:26:59.233Z,12.30
2023-05-20T01:27:31.674Z,12.60
2023-05-20T01:28:03.872Z,12.20
2023-05-20T01:28:39.329Z,12.20
2023-05-20T01:29:13.887Z,12.20
2023-05-20T01:29:48.244Z,12.20
2023-05-20T01:30:21.968Z,12.20
2023-05-20T01:30:57.884Z,12.20
2023-05-20T01:31:36.849Z,13.00
2023-05-20T01:32:17.034Z,12.20
2023-05-20T01:32:53.957Z,12.20
2023-05-20T01:33:27.657Z,12.10
2023-05-20T01:34:00.624Z,12.20
2023-05-20T01:34:36.697Z,11.90
2023-05-20T01:35:09.708Z,13.10
2023-05-20T01:35:42.921Z,12.20
2023-05-20T01:36:15.632Z,12.20
2023-05-20T01:36:50.489Z,12.20
2023-05-20T01:37:25.298Z,12.20
2023-05-20T01:38:00.001Z,12.20
2023-05-20T01:38:32.166Z,12.70
2023-05-20T01:39:06.461Z,12.20
2023-05-20T01:39:41.714Z,12.20
2023-05-20T01:40:16.401Z,13.80
2023-05-20T01:40:49.207Z,12.80
2023-05-20T01:41:23.752Z,12.20
2023-05-20T01:41:56.376Z,12.20
2023-05-20T01:42:29.054Z,12.20
2023-05-20T01:43:02.727Z,12.00
2023-05-20T01:43:35.116Z,12.20
2023-05-20T01:44:07.324Z,12.10
2023-05-20T01:44:40.377Z,12.10
2023-05-20T01:45:12.780Z,12.20
2023-05-20T01:45:44.988Z,12.10
2023-05-20T01:46:16.914Z,11.60
2023-05-20T01:46:51.650Z,12.00
2023-05-20T01:47:23.499Z,12.10
2023-05-20T01:47:55.550Z,12.10
2023-05-20T01:48:27.391Z,12.00
2023-05-20T01:48:59.312Z,11.90
2023-05-20T01:49:31.338Z,11.70
2023-05-20T01:50:03.192Z,12.10
2023-05-20T01:50:34.997Z,12.10
2023-05-20T01:51:06.846Z,11.80
2023-05-20T01:51:38.869Z,12.10
2023-05-20T01:52:10.674Z,11.90
2023-05-20T01:52:42.553Z,12.10
2023-05-20T01:53:14.679Z,11.90
2023-05-20T01:53:46.959Z,11.60
2023-05-20T01:54:19.021Z,12.90
2023-05-20T01:54:53.603Z,12.50
2023-05-20T01:55:26.681Z,12.00
2023-05-20T01:55:58.644Z,12.20
2023-05-20T01:56:31.344Z,12.00
2023-05-20T01:57:04.651Z,12.00
2023-05-20T01:57:36.561Z,12.00
2023-05-20T01:58:09.693Z,12.00
2023-05-20T01:58:41.748Z,12.00
2023-05-20T01:59:13.642Z,12.00
2023-05-20T01:59:45.660Z,12.00
2023-05-20T02:00:17.512Z,13.20
2023-05-20T02:00:49.944Z,11.70
2023-05-20T02:01:21.942Z,12.00
2023-05-20T02:01:53.878Z,12.00
2023-05-20T02:02:25.889Z,12.00
2023-05-20T02:02:57.831Z,11.40
2023-05-20T02:03:29.686Z,13.20
2023-05-20T02:04:01.628Z,12.00
2023-05-20T02:04:35.135Z,11.90
2023-05-20T02:05:07.239Z,14.90
2023-05-20T02:05:40.106Z,12.00
2023-05-20T02:06:12.004Z,12.00
2023-05-20T02:06:43.876Z,11.90
2023-05-20T02:07:16.421Z,12.30
2023-05-20T02:07:48.270Z,11.80
2023-05-20T02:08:20.068Z,11.50
2023-05-20T02:08:51.896Z,11.30
2023-05-20T02:09:24.072Z,11.90
2023-05-20T02:09:57.562Z,11.90
2023-05-20T02:10:29.704Z,11.90
2023-05-20T02:11:01.558Z,12.40
2023-05-20T02:11:33.364Z,11.90
2023-05-20T02:12:05.605Z,11.70
2023-05-20T02:12:38.627Z,11.90
2023-05-20T02:13:10.535Z,11.90
2023-05-20T02:13:42.532Z,11.70
2023-05-20T02:14:14.479Z,11.90
2023-05-20T02:14:48.104Z,11.70
2023-05-20T02:15:20.857Z,11.90
2023-05-20T02:15:52.683Z,11.90
2023-05-20T02:16:24.598Z,11.90
2023-05-20T02:16:56.747Z,11.60
2023-05-20T02:17:28.911Z,11.60
2023-05-20T02:18:02.522Z,11.60
2023-05-20T02:18:35.302Z,11.90
2023-05-20T02:19:12.592Z,11.90
2023-05-20T02:19:45.837Z,11.90
2023-05-20T02:20:17.675Z,11.90
2023-05-20T02:20:49.459Z,11.90
2023-05-20T02:21:22.176Z,10.10
2023-05-20T02:21:54.023Z,12.90
2023-05-20T02:22:26.057Z,11.60
2023-05-20T02:22:57.883Z,11.90
2023-05-20T02:23:30.377Z,11.90
2023-05-20T02:24:05.048Z,11.40
2023-05-20T02:24:38.471Z,11.80
2023-05-20T02:25:10.493Z,11.70
2023-05-20T02:25:43.267Z,11.90
2023-05-20T02:26:16.284Z,11.90
2023-05-20T02:26:51.105Z,11.80
2023-05-20T02:27:22.956Z,11.70
2023-05-20T02:27:54.708Z,11.90
2023-05-20T02:28:26.566Z,11.40
2023-05-20T02:29:00.380Z,11.90
2023-05-20T02:29:32.452Z,12.20
2023-05-20T02:30:04.663Z,11.30
2023-05-20T02:30:39.441Z,11.80
2023-05-20T02:31:11.229Z,11.80
2023-05-20T02:31:43.044Z,11.50
2023-05-20T02:32:14.949Z,12.50
2023-05-20T02:32:46.978Z,11.80
2023-05-20T02:33:20.090Z,12.30
2023-05-20T02:33:52.080Z,11.90
2023-05-20T02:34:26.161Z,11.90
2023-05-20T02:34:58.179Z,11.90
2023-05-20T02:35:30.244Z,11.40
2023-05-20T02:36:02.106Z,11.70
2023-05-20T02:36:34.010Z,11.90
2023-05-20T02:37:07.097Z,12.00
2023-05-20T02:37:39.546Z,11.90
2023-05-20T02:38:12.640Z,12.20
2023-05-20T02:38:45.021Z,11.60
2023-05-20T02:39:17.211Z,11.70
2023-05-20T02:39:49.080Z,11.80
2023-05-20T02:40:20.972Z,11.80
2023-05-20T02:40:52.742Z,12.10
2023-05-20T02:41:24.685Z,11.80
2023-05-20T02:41:56.983Z,11.80
2023-05-20T02:42:29.160Z,12.10
2023-05-20T02:43:04.159Z,11.80
2023-05-20T02:43:36.454Z,11.80
2023-05-20T02:44:08.267Z,11.80
2023-05-20T02:44:40.205Z,12.60
2023-05-20T02:45:12.224Z,11.80
2023-05-20T02:45:44.544Z,11.80
2023-05-20T02:46:19.639Z,11.70
2023-05-20T02:46:52.265Z,12.00
2023-05-20T02:47:25.094Z,11.80
2023-05-20T02:47:56.985Z,11.80
2023-05-20T02:48:28.917Z,12.10
2023-05-20T02:49:00.891Z,11.50
2023-05-20T02:49:32.884Z,11.70
2023-05-20T02:50:05.275Z,11.70
2023-05-20T02:50:40.190Z,11.70
2023-05-20T02:51:12.337Z,11.50
2023-05-20T02:51:44.109Z,11.60
2023-05-20T02:52:16.406Z,11.50
2023-05-20T02:52:48.479Z,12.00
2023-05-20T02:53:20.988Z,11.70
2023-05-20T02:53:53.121Z,12.30
2023-05-20T02:54:25.707Z,11.30
2023-05-20T02:54:57.739Z,11.70
2023-05-20T02:55:29.643Z,12.20
2023-05-20T02:56:01.636Z,11.60
2023-05-20T02:56:34.303Z,11.60
2023-05-20T02:57:06.952Z,11.60
2023-05-20T02:57:39.559Z,11.20
2023-05-20T02:58:13.388Z,13.00
2023-05-20T02:58:45.211Z,11.70
2023-05-20T02:59:17.030Z,11.70
2023-05-20T02:59:48.934Z,11.70
2023-05-20T03:00:22.389Z,11.70
2023-05-20T03:00:54.152Z,11.70
2023-05-20T03:01:26.018Z,11.50
2023-05-20T03:01:58.274Z,11.70
2023-05-20T03:02:30.112Z,11.70
2023-05-20T03:03:02.753Z,11.70
2023-05-20T03:03:34.729Z,11.60
2023-05-20T03:04:06.719Z,11.60
2023-05-20T03:04:38.848Z,11.60
2023-05-20T03:05:11.006Z,13.20
2023-05-20T03:05:46.029Z,10.50
2023-05-20T03:06:17.930Z,11.70
2023-05-20T03:06:52.017Z,11.30
2023-05-20T03:07:23.885Z,11.60
2023-05-20T03:07:55.703Z,11.70
2023-05-20T03:08:27.600Z,11.50
2023-05-20T03:08:59.870Z,11.50
2023-05-20T03:09:31.738Z,12.70
2023-05-20T03:10:06.566Z,11.60
2023-05-20T03:10:39.468Z,11.60
2023-05-20T03:11:11.790Z,11.60
2023-05-20T03:11:43.607Z,11.60
2023-05-20T03:12:15.701Z,11.60
2023-05-20T03:12:47.537Z,11.60
2023-05-20T03:13:20.448Z,11.60
2023-05-20T03:13:52.276Z,11.60
2023-05-20T03:14:24.082Z,11.40
2023-05-20T03:14:55.897Z,11.50
2023-05-20T03:15:28.091Z,11.60
2023-05-20T03:16:01.502Z,11.60
2023-05-20T03:16:35.398Z,11.60
2023-05-20T03:17:08.893Z,11.40
2023-05-20T03:17:40.747Z,11.50
2023-05-20T03:18:13.794Z,11.50
2023-05-20T03:18:46.235Z,11.50
2023-05-20T03:19:18.776Z,11.50
2023-05-20T03:19:50.690Z,10.80
2023-05-20T03:20:23.068Z,11.50
2023-05-20T03:20:54.865Z,11.50
2023-05-20T03:21:26.821Z,12.30
2023-05-20T03:21:58.643Z,11.20
2023-05-20T03:22:30.856Z,11.30
2023-05-20T03:23:03.214Z,12.20
2023-05-20T03:23:35.429Z,11.50
2023-05-20T03:24:07.809Z,11.50
2023-05-20T03:24:40.491Z,11.50
2023-05-20T03:25:12.513Z,11.50
2023-05-20T03:25:44.321Z,11.50
2023-05-20T03:26:16.870Z,11.50
2023-05-20T03:26:48.911Z,11.40
2023-05-20T03:27:21.467Z,11.40
2023-05-20T03:27:53.425Z,11.90
2023-05-20T03:28:25.443Z,11.50
2023-05-20T03:28:57.560Z,11.50
2023-05-20T03:29:29.705Z,11.10
2023-05-20T03:30:01.567Z,11.50
2023-05-20T03:30:34.112Z,12.00
2023-05-20T03:31:06.490Z,11.50
2023-05-20T03:31:39.470Z,11.30
2023-05-20T03:32:11.356Z,11.10
2023-05-20T03:32:43.190Z,11.00
2023-05-20T03:33:15.924Z,11.50
2023-05-20T03:33:47.754Z,11.50
2023-05-20T03:34:19.652Z,11.50
2023-05-20T03:34:54.527Z,11.20
2023-05-20T03:35:26.828Z,11.50
2023-05-20T03:35:59.774Z,10.90
2023-05-20T03:36:32.001Z,11.50
2023-05-20T03:37:03.849Z,11.30
2023-05-20T03:37:36.776Z,11.50
2023-05-20T03:38:09.376Z,11.50
2023-05-20T03:38:43.010Z,12.20
2023-05-20T03:39:14.815Z,11.00
2023-05-20T03:39:46.661Z,12.50
2023-05-20T03:40:18.800Z,12.10
2023-05-20T03:40:50.662Z,11.40
2023-05-20T03:41:23.104Z,10.80
2023-05-20T03:41:54.932Z,11.50
2023-05-20T03:42:26.817Z,11.90
2023-05-20T03:42:59.055Z,11.40
2023-05-20T03:43:30.982Z,12.60
2023-05-20T03:44:03.308Z,11.60
2023-05-20T03:44:35.198Z,11.30
2023-05-20T03:45:08.255Z,11.40
2023-05-20T03:45:46.934Z,11.40
2023-05-20T03:46:19.286Z,11.90
2023-05-20T03:46:51.299Z,11.30
2023-05-20T03:47:23.165Z,12.20
2023-05-20T03:47:55.634Z,11.40
2023-05-20T03:48:27.713Z,11.40
2023-05-20T03:48:59.929Z,11.30
2023-05-20T03:49:31.713Z,11.40
2023-05-20T03:50:03.900Z,11.30
2023-05-20T03:50:36.620Z,11.40
2023-05-20T03:51:08.464Z,11.40
2023-05-20T03:51:40.332Z,12.20
2023-05-20T03:52:16.178Z,10.70
2023-05-20T03:52:48.002Z,11.30
2023-05-20T03:53:21.836Z,10.50
2023-05-20T03:53:53.851Z,11.20
2023-05-20T03:54:25.677Z,11.30
2023-05-20T03:54:58.000Z,11.30
2023-05-20T03:55:29.903Z,11.70
2023-05-20T03:56:02.040Z,11.80
2023-05-20T03:56:34.801Z,11.30
2023-05-20T03:57:06.958Z,11.20
2023-05-20T03:57:38.973Z,11.00
2023-05-20T03:58:10.946Z,11.30
2023-05-20T03:58:43.032Z,11.30
2023-05-20T03:59:14.999Z,11.40
2023-05-20T03:59:46.864Z,11.30
2023-05-20T04:00:18.786Z,12.40
2023-05-20T04:00:50.581Z,11.30
2023-05-20T04:01:25.626Z,12.00
2023-05-20T04:01:57.497Z,11.30
2023-05-20T04:02:29.963Z,11.30
2023-05-20T04:03:02.132Z,11.30
2023-05-20T04:03:34.132Z,11.90
2023-05-20T04:04:06.435Z,12.10
2023-05-20T04:04:38.347Z,11.20
2023-05-20T04:05:10.752Z,11.30
2023-05-20T04:05:44.038Z,11.20
2023-05-20T04:06:22.486Z,11.20
2023-05-20T04:06:56.133Z,10.70
2023-05-20T04:07:29.921Z,11.10
2023-05-20T04:08:01.819Z,11.20
2023-05-20T04:08:36.508Z,11.20
2023-05-20T04:09:08.345Z,11.20
2023-05-20T04:09:40.123Z,11.10
2023-05-20T04:10:12.579Z,11.20
2023-05-20T04:10:44.627Z,11.30
2023-05-20T04:11:17.120Z,10.80
2023-05-20T04:11:49.326Z,12.20
2023-05-20T04:12:21.114Z,11.30
2023-05-20T04:12:53.871Z,11.30
2023-05-20T04:13:26.565Z,11.20
2023-05-20T04:14:01.321Z,12.00
2023-05-20T04:14:35.011Z,10.90
2023-05-20T04:15:07.552Z,11.20
2023-05-20T04:15:47.934Z,11.20
2023-05-20T04:16:20.950Z,11.20
2023-05-20T04:16:52.920Z,11.30
2023-05-20T04:17:24.896Z,11.30
2023-05-20T04:17:56.936Z,11.20
2023-05-20T04:18:32.097Z,11.20
2023-05-20T04:19:04.312Z,11.20
2023-05-20T04:19:36.245Z,11.20
2023-05-20T04:20:08.396Z,11.20
2023-05-20T04:20:41.764Z,11.20
2023-05-20T04:21:14.960Z,11.20
2023-05-20T04:21:46.922Z,10.80
2023-05-20T04:22:19.026Z,11.40
2023-05-20T04:22:50.970Z,11.70
2023-05-20T04:23:23.801Z,11.20
2023-05-20T04:23:55.706Z,10.90
2023-05-20T04:24:27.856Z,11.30
2023-05-20T04:24:59.816Z,11.30
2023-05-20T04:25:31.670Z,11.20
2023-05-20T04:26:03.637Z,11.20
2023-05-20T04:26:37.647Z,11.10
2023-05-20T04:27:09.543Z,11.00
2023-05-20T04:27:41.522Z,11.30
2023-05-20T04:28:16.171Z,11.30
2023-05-20T04:28:51.100Z,9.50
2023-05-20T04:29:23.044Z,11.20
2023-05-20T04:29:55.660Z,10.90
2023-05-20T04:30:27.527Z,11.20
2023-05-20T04:31:00.804Z,10.90
2023-05-20T04:31:32.808Z,12.00
2023-05-20T04:32:05.267Z,11.20
2023-05-20T04:32:37.237Z,12.50
2023-05-20T04:33:09.155Z,10.60
2023-05-20T04:33:41.328Z,11.10
2023-05-20T04:34:13.945Z,11.10
2023-05-20T04:34:46.892Z,10.80
2023-05-20T04:35:18.909Z,11.30
2023-05-20T04:35:52.962Z,11.10
2023-05-20T04:36:28.844Z,11.10
2023-05-20T04:37:01.417Z,10.50
2023-05-20T04:37:33.413Z,11.10
2023-05-20T04:38:05.179Z,11.10
2023-05-20T04:38:37.355Z,11.10
2023-05-20T04:39:09.412Z,11.00
2023-05-20T04:39:43.546Z,11.00
2023-05-20T04:40:19.108Z,11.10
2023-05-20T04:40:51.336Z,11.10
2023-05-20T04:41:23.925Z,11.10
2023-05-20T04:41:55.845Z,11.70
2023-05-20T04:42:27.891Z,11.50
2023-05-20T04:43:04.169Z,11.10
2023-05-20T04:43:38.900Z,12.10
2023-05-20T04:44:10.725Z,9.20
2023-05-20T04:44:43.029Z,11.70
2023-05-20T04:45:14.893Z,11.10
2023-05-20T04:45:48.115Z,11.80
2023-05-20T04:46:20.543Z,11.00
2023-05-20T04:46:53.418Z,11.10
2023-05-20T04:47:25.579Z,11.50
2023-05-20T04:47:58.099Z,11.10
2023-05-20T04:48:30.003Z,11.10
2023-05-20T04:49:01.895Z,11.10
2023-05-20T04:49:34.594Z,11.10
2023-05-20T04:50:10.914Z,10.80
2023-05-20T04:50:46.051Z,11.00
2023-05-20T04:51:17.880Z,10.40
2023-05-20T04:51:49.991Z,11.00
2023-05-20T04:52:24.515Z,11.00
2023-05-20T04:52:56.346Z,11.00
2023-05-20T04:53:28.116Z,11.10
2023-05-20T04:53:59.962Z,11.10
2023-05-20T04:54:33.780Z,11.90
2023-05-20T04:55:12.729Z,10.70
2023-05-20T04:55:46.121Z,11.10
2023-05-20T04:56:18.257Z,11.10
2023-05-20T04:56:51.054Z,11.60
2023-05-20T04:57:22.906Z,11.40
2023-05-20T04:57:54.743Z,10.50
2023-05-20T04:58:26.649Z,11.00
2023-05-20T04:58:58.736Z,9.50
2023-05-20T04:59:30.625Z,11.00
2023-05-20T05:00:02.535Z,11.00
2023-05-20T05:00:34.360Z,11.00
2023-05-20T05:01:06.477Z,11.20
2023-05-20T05:01:38.450Z,11.00
2023-05-20T05:02:10.977Z,10.80
2023-05-20T05:02:43.357Z,11.00
2023-05-20T05:03:15.736Z,12.10
2023-05-20T05:03:47.678Z,11.00
2023-05-20T05:04:19.594Z,11.00
2023-05-20T05:04:51.844Z,11.80
2023-05-20T05:05:23.704Z,11.50
2023-05-20T05:05:59.108Z,11.00
2023-05-20T05:06:31.873Z,11.00
2023-05-20T05:07:05.282Z,12.00
2023-05-20T05:07:37.497Z,11.10
2023-05-20T05:08:11.598Z,11.10
2023-05-20T05:08:48.144Z,11.10
2023-05-20T05:09:19.965Z,11.10
2023-05-20T05:09:52.026Z,11.80
2023-05-20T05:10:25.153Z,10.50
2023-05-20T05:10:56.980Z,11.10
2023-05-20T05:11:28.890Z,10.90
2023-05-20T05:12:01.212Z,11.00
2023-05-20T05:12:33.628Z,11.50
2023-05-20T05:13:05.574Z,11.00
2023-05-20T05:13:37.939Z,11.50
2023-05-20T05:14:09.772Z,11.00
2023-05-20T05:14:41.683Z,12.30
2023-05-20T05:15:13.971Z,11.10
2023-05-20T05:15:47.735Z,11.10
2023-05-20T05:16:19.747Z,10.90
2023-05-20T05:16:52.966Z,11.60
2023-05-20T05:17:26.733Z,10.80
2023-05-20T05:17:58.903Z,10.60
2023-05-20T05:18:30.691Z,11.00
2023-05-20T05:19:02.598Z,11.00
2023-05-20T05:19:39.173Z,11.10
2023-05-20T05:20:11.181Z,11.10
2023-05-20T05:20:43.206Z,11.20
2023-05-20T05:21:15.095Z,11.10
2023-05-20T05:21:48.117Z,11.60
2023-05-20T05:22:19.950Z,11.00
2023-05-20T05:22:51.847Z,11.60
2023-05-20T05:23:23.975Z,10.90
2023-05-20T05:23:58.447Z,11.00
2023-05-20T05:24:30.398Z,11.00
2023-05-20T05:25:03.366Z,11.30
2023-05-20T05:25:35.415Z,11.00
2023-05-20T05:26:07.458Z,11.00
2023-05-20T05:26:39.281Z,11.70
2023-05-20T05:27:11.166Z,11.00
2023-05-20T05:27:44.654Z,10.50
2023-05-20T05:28:16.432Z,12.30
2023-05-20T05:28:48.280Z,11.00
2023-05-20T05:29:20.119Z,11.40
2023-05-20T05:29:51.920Z,11.00
2023-05-20T05:30:24.829Z,11.00
2023-05-20T05:30:57.154Z,11.00
2023-05-20T05:31:28.939Z,11.30
2023-05-20T05:32:01.196Z,11.00
2023-05-20T05:32:34.433Z,11.10
2023-05-20T05:33:06.462Z,11.10
2023-05-20T05:33:38.454Z,11.10
2023-05-20T05:34:10.336Z,11.70
2023-05-20T05:34:42.191Z,11.10
2023-05-20T05:35:14.083Z,11.10
2023-05-20T05:35:46.148Z,11.10
2023-05-20T05:36:17.956Z,11.00
2023-05-20T05:36:50.097Z,11.00
2023-05-20T05:37:21.999Z,11.10
2023-05-20T05:37:53.796Z,11.50
2023-05-20T05:38:25.835Z,11.10
2023-05-20T05:38:57.903Z,11.20
2023-05-20T05:39:29.715Z,11.10
2023-05-20T05:40:01.579Z,11.10
2023-05-20T05:40:33.486Z,11.10
2023-05-20T05:41:05.450Z,11.10
2023-05-20T05:41:37.540Z,11.20
2023-05-20T05:42:41.667Z,11.20
2023-05-20T05:43:13.785Z,11.20
2023-05-20T05:43:45.762Z,11.20
2023-05-20T05:44:17.614Z,11.20
2023-05-20T05:44:49.496Z,11.20
2023-05-20T05:45:21.667Z,10.50
2023-05-20T05:45:53.585Z,11.70
2023-05-20T05:46:25.700Z,11.80
2023-05-20T05:46:57.698Z,11.30
2023-05-20T05:47:32.578Z,11.20
2023-05-20T05:48:05.404Z,11.10
2023-05-20T05:48:37.553Z,11.20
2023-05-20T05:49:09.348Z,11.20
2023-05-20T05:49:41.383Z,11.20
2023-05-20T05:50:13.211Z,11.50
2023-05-20T05:50:48.138Z,12.10
2023-05-20T05:51:22.066Z,11.20
2023-05-20T05:51:54.476Z,11.00
2023-05-20T05:52:27.149Z,11.20
2023-05-20T05:52:59.213Z,10.70
2023-05-20T05:53:31.055Z,10.70
2023-05-20T05:54:02.899Z,11.10
2023-05-20T05:54:35.065Z,12.60
2023-05-20T05:55:08.053Z,10.80
2023-05-20T05:55:40.197Z,11.20
2023-05-20T05:56:12.226Z,11.10
2023-05-20T05:56:44.077Z,11.70
2023-05-20T05:57:16.177Z,10.70
2023-05-20T05:58:21.629Z,11.20
2023-05-20T05:58:53.548Z,12.30
2023-05-20T05:59:25.439Z,12.00
2023-05-20T05:59:58.250Z,10.80
2023-05-20T06:00:30.209Z,11.20
2023-05-20T06:01:02.144Z,11.20
2023-05-20T06:01:34.059Z,13.30
2023-05-20T06:02:06.385Z,11.90
2023-05-20T06:02:38.603Z,11.30
2023-05-20T06:03:10.915Z,11.20
2023-05-20T06:03:43.231Z,11.10
2023-05-20T06:04:15.390Z,10.80
2023-05-20T06:04:47.299Z,11.20
2023-05-20T06:05:19.152Z,11.10
2023-05-20T06:05:51.390Z,11.10
2023-05-20T06:06:26.247Z,11.40
2023-05-20T06:06:59.014Z,11.20
2023-05-20T06:07:30.957Z,12.60
2023-05-20T06:08:03.042Z,11.40
2023-05-20T06:08:37.461Z,12.60
2023-05-20T06:09:10.223Z,11.00
2023-05-20T06:09:42.121Z,11.40
2023-05-20T06:10:13.986Z,12.80
2023-05-20T06:10:52.052Z,11.10
2023-05-20T06:11:24.325Z,11.00
2023-05-20T06:11:56.885Z,11.10
2023-05-20T06:12:28.759Z,11.10
2023-05-20T06:13:00.675Z,12.40
2023-05-20T06:13:32.906Z,11.10
2023-05-20T06:14:04.689Z,10.80
2023-05-20T06:14:36.482Z,10.80
2023-05-20T06:15:08.926Z,11.10
2023-05-20T06:15:41.516Z,11.10
2023-05-20T06:16:13.438Z,11.20
2023-05-20T06:16:45.360Z,12.00
2023-05-20T06:17:17.595Z,11.10
2023-05-20T06:17:49.521Z,11.10
2023-05-20T06:18:21.870Z,10.80
2023-05-20T06:18:57.245Z,11.10
2023-05-20T06:19:29.308Z,11.10
2023-05-20T06:20:01.168Z,11.20
2023-05-20T06:20:33.177Z,12.20
2023-05-20T06:21:05.106Z,11.80
2023-05-20T06:21:37.068Z,11.00
2023-05-20T06:22:09.003Z,11.00
2023-05-20T06:22:41.122Z,10.60
2023-05-20T06:23:13.010Z,10.70
2023-05-20T06:23:55.679Z,11.20
2023-05-20T06:24:28.126Z,12.40
2023-05-20T06:25:02.354Z,11.00
2023-05-20T06:25:35.507Z,10.70
2023-05-20T06:26:07.608Z,11.20
2023-05-20T06:26:39.484Z,11.00
2023-05-20T06:27:11.335Z,11.00
2023-05-20T06:27:43.802Z,12.10
2023-05-20T06:28:18.676Z,12.60
2023-05-20T06:28:50.591Z,11.30
2023-05-20T06:29:23.439Z,10.90
2023-05-20T06:29:55.568Z,11.90
2023-05-20T06:30:28.108Z,10.90
2023-05-20T06:31:00.328Z,11.10
2023-05-20T06:31:35.725Z,11.10
2023-05-20T06:32:08.608Z,10.90
2023-05-20T06:32:40.667Z,11.10
2023-05-20T06:33:12.525Z,12.50
2023-05-20T06:33:44.468Z,10.70
2023-05-20T06:34:17.868Z,10.80
2023-05-20T06:34:49.903Z,11.00
2023-05-20T06:35:22.387Z,12.10
2023-05-20T06:35:56.173Z,11.10
2023-05-20T06:36:28.696Z,10.70
2023-05-20T06:37:00.472Z,11.50
2023-05-20T06:37:32.496Z,10.90
2023-05-20T06:38:04.452Z,10.80
2023-05-20T06:38:36.361Z,10.80
2023-05-20T06:39:12.367Z,11.70
2023-05-20T06:39:47.629Z,11.10
2023-05-20T06:40:19.535Z,11.20
2023-05-20T06:40:51.643Z,11.00
2023-05-20T06:41:23.488Z,12.40
2023-05-20T06:42:36.747Z,11.20
2023-05-20T06:43:09.931Z,11.90
2023-05-20T06:43:59.302Z,11.80
2023-05-20T06:44:54.204Z,11.20
2023-05-20T06:45:37.050Z,11.70
2023-05-20T06:46:25.289Z,11.00
2023-05-20T06:47:05.169Z,11.00
2023-05-20T06:47:37.801Z,11.70
2023-05-20T06:48:10.062Z,11.00
2023-05-20T06:48:42.053Z,11.20
2023-05-20T06:49:13.916Z,12.70
2023-05-20T06:49:47.376Z,11.20
2023-05-20T06:50:19.639Z,11.10
2023-05-20T06:50:51.447Z,11.30
2023-05-20T06:51:23.243Z,12.20
2023-05-20T06:51:55.626Z,11.10
2023-05-20T06:52:27.467Z,11.30
2023-05-20T06:52:59.357Z,12.60
2023-05-20T06:53:31.474Z,11.30
2023-05-20T06:54:03.351Z,13.00
2023-05-20T06:54:40.052Z,11.40
2023-05-20T06:55:12.770Z,12.30
2023-05-20T06:55:45.310Z,11.40
2023-05-20T06:56:17.181Z,11.20
2023-05-20T06:56:49.310Z,11.40
2023-05-20T06:57:22.422Z,11.20
2023-05-20T06:57:54.308Z,11.20
2023-05-20T06:58:26.373Z,11.30
2023-05-20T06:59:00.611Z,11.80
2023-05-20T06:59:32.916Z,11.30
2023-05-20T07:00:05.902Z,11.30
2023-05-20T07:00:42.033Z,11.40
2023-05-20T07:01:18.121Z,11.40
2023-05-20T07:01:51.147Z,11.40
2023-05-20T07:02:23.704Z,11.20
2023-05-20T07:02:55.620Z,11.80
2023-05-20T07:03:27.601Z,11.30
2023-05-20T07:03:59.403Z,11.40
2023-05-20T07:04:31.364Z,11.20